createdAt,value
2022-12-05T00:01:40.958Z,16.20
2022-12-05T00:04:11.922Z,16.21
2022-12-05T00:06:41.081Z,16.20
2022-12-05T00:09:10.423Z,16.20
2022-12-05T00:11:39.941Z,16.19
2022-12-05T00:14:09.187Z,16.18
2022-12-05T00:16:39.361Z,16.19
2022-12-05T00:19:08.566Z,16.17
2022-12-05T00:21:37.427Z,16.18
2022-12-05T00:24:07.432Z,16.16
2022-12-05T00:26:35.552Z,16.17
2022-12-05T00:29:04.119Z,16.17
2022-12-05T00:31:31.863Z,16.19
2022-12-05T00:34:03.455Z,16.19
2022-12-05T00:36:34.663Z,16.20
2022-12-05T00:39:06.945Z,16.22
2022-12-05T00:41:34.947Z,16.22
2022-12-05T00:44:03.879Z,16.22
2022-12-05T00:46:32.720Z,16.23
2022-12-05T00:49:01.404Z,16.23
2022-12-05T00:51:35.160Z,16.23
2022-12-05T00:54:04.801Z,16.22
2022-12-05T00:56:33.027Z,16.22
2022-12-05T00:59:01.839Z,16.23
2022-12-05T01:01:38.406Z,16.24
2022-12-05T01:04:10.413Z,16.23
2022-12-05T01:06:38.920Z,16.24
2022-12-05T01:09:06.986Z,16.24
2022-12-05T01:11:40.711Z,16.24
2022-12-05T01:14:10.084Z,16.24
2022-12-05T01:16:39.615Z,16.23
2022-12-05T01:19:12.885Z,16.25
2022-12-05T01:21:40.870Z,16.25
2022-12-05T01:24:09.252Z,16.23
2022-12-05T01:26:37.001Z,16.24
2022-12-05T01:29:04.474Z,16.23
2022-12-05T01:31:35.562Z,16.24
2022-12-05T01:34:06.215Z,16.23
2022-12-05T01:36:34.323Z,16.24
2022-12-05T01:39:02.712Z,16.24
2022-12-05T01:41:36.730Z,16.23
2022-12-05T01:44:28.041Z,16.21
2022-12-05T01:46:56.332Z,16.23
2022-12-05T01:49:30.703Z,16.23
2022-12-05T01:52:03.400Z,16.24
2022-12-05T01:54:31.107Z,16.23
2022-12-05T01:57:02.763Z,16.23
2022-12-05T01:59:34.276Z,16.22
2022-12-05T02:02:03.072Z,16.23
2022-12-05T02:04:35.479Z,16.21
2022-12-05T02:07:03.153Z,16.21
2022-12-05T02:09:30.497Z,16.22
2022-12-05T02:12:01.855Z,16.22
2022-12-05T02:15:03.520Z,16.21
2022-12-05T02:17:58.468Z,16.21
2022-12-05T02:20:48.978Z,16.22
2022-12-05T02:23:37.891Z,16.22
2022-12-05T02:26:18.813Z,16.22
2022-12-05T02:29:22.064Z,16.22
2022-12-05T02:32:09.544Z,16.21
2022-12-05T02:34:53.600Z,16.20
2022-12-05T02:37:29.888Z,16.21
2022-12-05T02:40:13.833Z,16.21
2022-12-05T02:42:46.891Z,16.22
2022-12-05T02:45:18.512Z,16.21
2022-12-05T02:47:50.297Z,16.20
2022-12-05T02:50:22.927Z,16.19
2022-12-05T02:52:54.407Z,16.21
2022-12-05T02:55:26.724Z,16.21
2022-12-05T02:57:58.493Z,16.21
2022-12-05T03:00:26.104Z,16.20
2022-12-05T03:02:59.508Z,16.20
2022-12-05T03:05:59.864Z,16.19
2022-12-05T03:08:33.492Z,16.20
2022-12-05T03:11:02.481Z,16.20
2022-12-05T03:13:41.176Z,16.20
2022-12-05T03:16:16.687Z,16.19
2022-12-05T03:19:22.768Z,16.19
2022-12-05T03:21:58.879Z,16.18
2022-12-05T03:24:26.691Z,16.18
2022-12-05T03:27:23.968Z,16.18
2022-12-05T03:29:54.739Z,16.17
2022-12-05T03:32:45.653Z,16.17
2022-12-05T03:35:41.028Z,16.18
2022-12-05T03:38:12.823Z,16.17
2022-12-05T03:41:02.381Z,16.17
2022-12-05T03:43:58.176Z,16.17
2022-12-05T03:46:39.167Z,16.17
2022-12-05T03:49:19.856Z,16.15
2022-12-05T03:51:57.300Z,16.16
2022-12-05T03:54:35.403Z,16.15
2022-12-05T03:57:13.440Z,16.17
2022-12-05T03:59:52.676Z,16.15
2022-12-05T04:02:45.515Z,16.15
2022-12-05T04:05:20.484Z,16.15
2022-12-05T04:07:56.429Z,16.14
2022-12-05T04:10:29.418Z,16.13
2022-12-05T04:13:17.654Z,16.13
2022-12-05T04:16:13.716Z,16.14
2022-12-05T04:18:51.209Z,16.14
2022-12-05T04:21:40.844Z,16.14
2022-12-05T04:24:30.911Z,16.13
2022-12-05T04:27:11.079Z,16.14
2022-12-05T04:29:52.372Z,16.13
2022-12-05T04:32:23.422Z,16.13
2022-12-05T04:34:57.176Z,16.12
2022-12-05T04:37:26.289Z,16.12
2022-12-05T04:40:01.414Z,16.13
2022-12-05T04:42:31.311Z,16.12
2022-12-05T04:45:08.191Z,16.12
2022-12-05T04:47:43.581Z,16.12
2022-12-05T04:50:15.904Z,16.12
2022-12-05T04:52:49.196Z,16.10
2022-12-05T04:55:25.679Z,16.12
2022-12-05T04:58:09.921Z,16.12
2022-12-05T05:01:06.175Z,16.09
2022-12-05T05:03:45.715Z,16.09
2022-12-05T05:06:13.779Z,16.09
2022-12-05T05:08:50.202Z,16.08
2022-12-05T05:11:23.780Z,16.10
2022-12-05T05:13:52.303Z,16.08
2022-12-05T05:16:21.558Z,16.09
2022-12-05T05:18:50.275Z,16.10
2022-12-05T05:21:29.937Z,16.09
2022-12-05T05:23:57.908Z,16.09
2022-12-05T05:26:26.094Z,16.09
2022-12-05T05:28:54.063Z,16.09
2022-12-05T05:31:21.526Z,16.10
2022-12-05T05:33:57.461Z,16.09
2022-12-05T05:36:26.892Z,16.09
2022-12-05T05:38:57.361Z,16.09
2022-12-05T05:41:27.932Z,16.09
2022-12-05T05:43:56.326Z,16.09
2022-12-05T05:46:26.189Z,16.07
2022-12-05T05:48:54.096Z,16.08
2022-12-05T05:51:23.627Z,16.07
2022-12-05T05:53:51.435Z,16.06
2022-12-05T05:56:21.690Z,16.08
2022-12-05T05:58:59.738Z,16.07
2022-12-05T06:01:27.991Z,16.08
2022-12-05T06:03:55.872Z,16.07
2022-12-05T06:06:23.895Z,16.07
2022-12-05T06:08:51.780Z,16.06
2022-12-05T06:11:26.293Z,16.06
2022-12-05T06:14:01.239Z,16.04
2022-12-05T06:16:31.020Z,16.06
2022-12-05T06:18:59.629Z,16.04
2022-12-05T06:21:27.268Z,16.04
2022-12-05T06:23:54.908Z,16.07
2022-12-05T06:26:22.790Z,16.06
2022-12-05T06:28:50.706Z,16.06
2022-12-05T06:31:23.941Z,16.06
2022-12-05T06:33:51.667Z,16.07
2022-12-05T06:36:21.565Z,16.06
2022-12-05T06:38:49.189Z,16.07
2022-12-05T06:41:18.922Z,16.06
2022-12-05T06:43:46.757Z,16.06
2022-12-05T06:46:15.767Z,16.03
2022-12-05T06:48:43.658Z,16.01
2022-12-05T06:51:13.160Z,16.00
2022-12-05T06:53:40.946Z,15.99
2022-12-05T06:56:13.554Z,15.98
2022-12-05T06:58:42.382Z,15.98
2022-12-05T07:01:31.348Z,15.92
2022-12-05T07:03:59.398Z,15.89
2022-12-05T07:06:27.415Z,15.89
2022-12-05T07:08:55.133Z,15.89
2022-12-05T07:11:22.620Z,15.89
2022-12-05T07:13:50.196Z,15.89
2022-12-05T07:16:17.557Z,15.88
2022-12-05T07:18:45.137Z,15.90
2022-12-05T07:21:15.544Z,15.89
2022-12-05T07:23:45.456Z,15.89
2022-12-05T07:26:15.489Z,15.89
2022-12-05T07:28:42.987Z,15.89
2022-12-05T07:31:14.905Z,15.88
2022-12-05T07:33:42.840Z,15.88
2022-12-05T07:36:15.819Z,15.89
2022-12-05T07:38:44.417Z,15.89
2022-12-05T07:41:19.423Z,15.89
2022-12-05T07:43:47.339Z,15.90
2022-12-05T07:46:14.738Z,15.90
2022-12-05T07:48:42.257Z,15.90
2022-12-05T07:51:10.320Z,15.90
2022-12-05T07:53:38.964Z,15.90
2022-12-05T07:56:08.292Z,15.90
2022-12-05T07:58:36.637Z,15.90
2022-12-05T08:01:30.167Z,15.90
2022-12-05T08:03:59.110Z,15.90
2022-12-05T08:06:29.172Z,15.90
2022-12-05T08:08:58.149Z,15.91
2022-12-05T08:11:31.189Z,15.93
2022-12-05T08:13:58.992Z,15.93
2022-12-05T08:16:29.040Z,15.91
2022-12-05T08:18:58.300Z,15.91
2022-12-05T08:21:26.050Z,15.92
2022-12-05T08:23:54.653Z,15.93
2022-12-05T08:26:30.798Z,15.94
2022-12-05T08:29:06.010Z,15.93
2022-12-05T08:31:37.059Z,15.94
2022-12-05T08:34:04.644Z,15.94
2022-12-05T08:36:32.794Z,15.96
2022-12-05T08:39:03.965Z,15.96
2022-12-05T08:41:32.050Z,15.97
2022-12-05T08:44:03.134Z,15.98
2022-12-05T08:46:33.038Z,15.98
2022-12-05T08:49:00.847Z,15.97
2022-12-05T08:51:28.344Z,15.99
2022-12-05T08:53:56.508Z,16.00
2022-12-05T08:56:27.120Z,15.98
2022-12-05T08:59:02.965Z,15.99
2022-12-05T09:01:37.064Z,15.98
2022-12-05T09:04:05.838Z,15.97
2022-12-05T09:06:34.641Z,15.97
2022-12-05T09:09:06.474Z,15.97
2022-12-05T09:11:37.118Z,15.95
2022-12-05T09:14:05.318Z,15.99
2022-12-05T09:16:38.014Z,16.00
2022-12-05T09:19:10.986Z,16.01
2022-12-05T09:21:38.711Z,16.02
2022-12-05T09:24:07.191Z,16.03
2022-12-05T09:26:34.519Z,16.04
2022-12-05T09:29:03.386Z,16.03
2022-12-05T09:31:30.958Z,16.04
2022-12-05T09:33:58.709Z,16.03
2022-12-05T09:36:28.596Z,16.07
2022-12-05T09:39:00.810Z,16.07
2022-12-05T09:42:04.876Z,16.08
2022-12-05T09:44:44.268Z,16.08
2022-12-05T09:47:28.009Z,16.09
2022-12-05T09:50:02.319Z,16.08
2022-12-05T09:52:37.756Z,16.09
2022-12-05T09:55:12.756Z,16.09
2022-12-05T09:57:45.238Z,16.11
2022-12-05T10:00:14.034Z,16.10
2022-12-05T10:03:12.652Z,16.10
2022-12-05T10:05:47.088Z,16.11
2022-12-05T10:08:21.417Z,16.12
2022-12-05T10:10:57.531Z,16.13
2022-12-05T10:13:33.553Z,16.14
2022-12-05T10:16:07.671Z,16.14
2022-12-05T10:18:41.239Z,16.14
2022-12-05T10:21:08.812Z,16.14
2022-12-05T10:23:57.493Z,16.14
2022-12-05T10:26:43.881Z,16.13
2022-12-05T10:29:17.252Z,16.13
2022-12-05T10:31:47.960Z,16.14
2022-12-05T10:34:26.524Z,16.15
2022-12-05T10:37:08.102Z,16.16
2022-12-05T10:39:35.892Z,16.15
2022-12-05T10:42:04.479Z,16.16
2022-12-05T10:44:33.348Z,16.16
2022-12-05T10:47:02.073Z,16.16
2022-12-05T10:49:31.192Z,16.16
2022-12-05T10:51:59.564Z,16.16
2022-12-05T10:54:32.425Z,16.16
2022-12-05T10:57:00.076Z,16.16
2022-12-05T10:59:45.763Z,16.18
2022-12-05T11:02:33.820Z,16.19
2022-12-05T11:05:01.477Z,16.17
2022-12-05T11:07:45.443Z,16.19
2022-12-05T11:10:32.608Z,16.19
2022-12-05T11:13:00.949Z,16.20
2022-12-05T11:15:30.746Z,16.20
2022-12-05T11:18:18.268Z,16.19
2022-12-05T11:20:45.588Z,16.20
2022-12-05T11:23:23.806Z,16.18
2022-12-05T11:25:51.760Z,16.19
2022-12-05T11:28:19.261Z,16.17
2022-12-05T11:30:58.285Z,16.18
2022-12-05T11:33:28.418Z,16.16
2022-12-05T11:36:01.503Z,16.16
2022-12-05T11:38:32.669Z,16.16
2022-12-05T11:41:15.357Z,16.17
2022-12-05T11:43:56.890Z,16.16
2022-12-05T11:46:46.074Z,16.17
2022-12-05T11:49:40.153Z,16.16
2022-12-05T11:52:47.170Z,16.16
2022-12-05T11:55:33.279Z,16.16
2022-12-05T11:58:12.694Z,16.15
2022-12-05T12:00:59.068Z,16.17
2022-12-05T12:03:50.958Z,16.17
2022-12-05T12:06:29.244Z,16.14
2022-12-05T12:09:23.805Z,16.17
2022-12-05T12:12:29.819Z,16.17
2022-12-05T12:15:26.484Z,16.17
2022-12-05T12:18:31.833Z,16.17
2022-12-05T12:21:14.358Z,16.15
2022-12-05T12:24:06.839Z,16.19
2022-12-05T12:27:11.705Z,16.18
2022-12-05T12:30:09.392Z,16.16
2022-12-05T12:33:04.027Z,16.18
2022-12-05T12:35:37.991Z,16.17
2022-12-05T12:38:33.255Z,16.17
2022-12-05T12:41:17.593Z,16.17
2022-12-05T12:44:04.684Z,16.15
2022-12-05T12:47:02.984Z,16.18
2022-12-05T12:49:53.996Z,16.16
2022-12-05T12:52:38.534Z,16.17
2022-12-05T12:55:26.745Z,16.16
2022-12-05T12:58:16.052Z,16.16
2022-12-05T13:00:44.033Z,16.16
2022-12-05T13:03:20.724Z,16.16
2022-12-05T13:05:56.702Z,16.15
2022-12-05T13:08:28.540Z,16.16
2022-12-05T13:10:59.469Z,16.15
2022-12-05T13:13:34.009Z,16.15
2022-12-05T13:16:03.951Z,16.15
2022-12-05T13:18:31.659Z,16.15
2022-12-05T13:21:02.038Z,16.13
2022-12-05T13:23:34.080Z,16.13
2022-12-05T13:26:07.700Z,16.14
2022-12-05T13:28:54.552Z,16.15
2022-12-05T13:31:42.240Z,16.13
2022-12-05T13:34:29.023Z,16.14
2022-12-05T13:37:17.405Z,16.11
2022-12-05T13:40:11.962Z,16.09
2022-12-05T13:42:39.529Z,16.08
2022-12-05T13:45:11.428Z,16.09
2022-12-05T13:48:00.727Z,16.08
2022-12-05T13:50:49.368Z,16.07
2022-12-05T13:53:23.892Z,16.05
2022-12-05T13:56:04.761Z,16.06
2022-12-05T13:58:54.525Z,16.05
2022-12-05T14:01:25.368Z,16.04
2022-12-05T14:03:57.069Z,16.03
2022-12-05T14:06:39.681Z,16.03
2022-12-05T14:09:19.217Z,16.02
2022-12-05T14:12:12.247Z,16.02
2022-12-05T14:14:57.997Z,16.01
2022-12-05T14:17:45.157Z,15.99
2022-12-05T14:20:15.348Z,16.01
2022-12-05T14:23:15.973Z,15.99
2022-12-05T14:26:02.098Z,15.99
2022-12-05T14:29:14.190Z,15.98
2022-12-05T14:32:04.223Z,15.98
2022-12-05T14:34:36.833Z,15.98
2022-12-05T14:37:26.036Z,15.99
2022-12-05T14:40:02.668Z,15.97
2022-12-05T14:42:38.835Z,15.97
2022-12-05T14:45:30.203Z,15.95
2022-12-05T14:48:04.341Z,15.95
2022-12-05T14:50:43.564Z,15.95
2022-12-05T14:53:23.350Z,15.94
2022-12-05T14:55:56.587Z,15.95
2022-12-05T14:58:40.457Z,15.94
2022-12-05T15:01:46.905Z,15.94
2022-12-05T15:04:14.511Z,15.93
2022-12-05T15:06:50.352Z,15.92
2022-12-05T15:09:45.531Z,15.92
2022-12-05T15:12:22.390Z,15.93
2022-12-05T15:15:27.518Z,15.95
2022-12-05T15:18:02.274Z,15.95
2022-12-05T15:20:50.169Z,15.95
2022-12-05T15:23:37.599Z,15.97
2022-12-05T15:26:44.849Z,15.98
2022-12-05T15:29:25.378Z,15.98
2022-12-05T15:32:14.208Z,15.98
2022-12-05T15:34:56.415Z,15.97
2022-12-05T15:37:41.435Z,15.98
2022-12-05T15:40:17.893Z,15.98
2022-12-05T15:42:48.572Z,15.98
2022-12-05T15:45:21.690Z,15.98
2022-12-05T15:48:07.082Z,15.99
2022-12-05T15:50:52.477Z,15.98
2022-12-05T15:53:42.477Z,15.97
2022-12-05T15:56:20.539Z,15.96
2022-12-05T15:59:05.781Z,15.97
2022-12-05T16:01:35.392Z,15.98
2022-12-05T16:04:09.323Z,15.97
2022-12-05T16:06:49.756Z,15.95
2022-12-05T16:09:20.830Z,15.98
2022-12-05T16:12:02.399Z,15.97
2022-12-05T16:14:59.458Z,15.97
2022-12-05T16:17:36.731Z,15.97
2022-12-05T16:20:34.355Z,15.98
2022-12-05T16:23:04.940Z,15.96
2022-12-05T16:25:35.236Z,15.97
2022-12-05T16:28:11.101Z,15.96
2022-12-05T16:30:39.507Z,15.97
2022-12-05T16:33:13.874Z,15.96
2022-12-05T16:35:45.364Z,15.95
2022-12-05T16:38:14.795Z,15.96
2022-12-05T16:40:45.228Z,15.97
2022-12-05T16:43:31.647Z,15.97
2022-12-05T16:45:59.200Z,15.95
2022-12-05T16:48:29.095Z,15.97
2022-12-05T16:51:17.280Z,15.96
2022-12-05T16:53:49.784Z,15.97
2022-12-05T16:56:23.011Z,15.95
2022-12-05T16:58:51.496Z,15.96
2022-12-05T17:01:21.670Z,15.96
2022-12-05T17:03:49.473Z,15.97
2022-12-05T17:06:18.361Z,15.97
2022-12-05T17:08:45.994Z,15.97
2022-12-05T17:11:23.416Z,15.95
2022-12-05T17:13:52.299Z,15.95
2022-12-05T17:16:20.583Z,15.96
2022-12-05T17:18:48.281Z,15.95
2022-12-05T17:21:32.188Z,15.95
2022-12-05T17:24:00.407Z,15.95
2022-12-05T17:26:27.872Z,15.94
2022-12-05T17:28:55.649Z,15.96
2022-12-05T17:31:25.838Z,15.94
2022-12-05T17:33:54.513Z,15.94
2022-12-05T17:36:22.122Z,15.93
2022-12-05T17:38:50.134Z,15.94
2022-12-05T17:41:23.194Z,15.94
2022-12-05T17:43:51.439Z,15.94
2022-12-05T17:46:23.572Z,15.94
2022-12-05T17:48:51.973Z,15.94
2022-12-05T17:51:20.483Z,15.95
2022-12-05T17:53:48.542Z,15.93
2022-12-05T17:56:15.939Z,15.95
2022-12-05T17:58:43.866Z,15.95
2022-12-05T18:01:15.332Z,15.95
2022-12-05T18:03:43.155Z,15.96
2022-12-05T18:06:10.528Z,15.96
2022-12-05T18:08:39.889Z,15.94
2022-12-05T18:11:07.634Z,15.95
2022-12-05T18:13:35.891Z,15.94
2022-12-05T18:16:04.237Z,15.94
2022-12-05T18:18:31.972Z,15.94
2022-12-05T18:21:11.152Z,15.94
2022-12-05T18:23:40.073Z,15.93
2022-12-05T18:26:09.557Z,15.91
2022-12-05T18:28:38.636Z,15.90
2022-12-05T18:31:10.841Z,15.88
2022-12-05T18:33:39.262Z,15.87
2022-12-05T18:36:09.630Z,15.84
2022-12-05T18:38:39.050Z,15.83
2022-12-05T18:41:06.783Z,15.83
2022-12-05T18:43:34.711Z,15.82
2022-12-05T18:46:04.324Z,15.81
2022-12-05T18:48:43.711Z,15.81
2022-12-05T18:51:20.590Z,15.80
2022-12-05T18:53:53.796Z,15.79
2022-12-05T18:56:27.668Z,15.78
2022-12-05T18:58:58.237Z,15.78
2022-12-05T19:01:27.428Z,15.77
2022-12-05T19:03:59.473Z,15.77
2022-12-05T19:06:32.081Z,15.77
2022-12-05T19:09:03.083Z,15.77
2022-12-05T19:11:31.439Z,15.77
2022-12-05T19:14:01.346Z,15.78
2022-12-05T19:16:30.944Z,15.77
2022-12-05T19:19:01.367Z,15.78
2022-12-05T19:21:30.128Z,15.77
2022-12-05T19:23:58.068Z,15.78
2022-12-05T19:26:25.962Z,15.79
2022-12-05T19:28:53.814Z,15.80
2022-12-05T19:31:24.159Z,15.79
2022-12-05T19:33:54.179Z,15.80
2022-12-05T19:36:42.517Z,15.81
2022-12-05T19:39:15.902Z,15.81
2022-12-05T19:41:43.272Z,15.82
2022-12-05T19:44:11.420Z,15.81
2022-12-05T19:46:39.036Z,15.83
2022-12-05T19:49:08.875Z,15.84
2022-12-05T19:51:37.449Z,15.83
2022-12-05T19:54:07.120Z,15.83
2022-12-05T19:56:35.904Z,15.84
2022-12-05T19:59:04.544Z,15.85
2022-12-05T20:01:37.951Z,15.84
2022-12-05T20:04:09.245Z,15.85
2022-12-05T20:06:42.617Z,15.85
2022-12-05T20:09:11.812Z,15.87
2022-12-05T20:11:41.049Z,15.96
2022-12-05T20:14:10.750Z,16.00
2022-12-05T20:16:38.252Z,15.99
2022-12-05T20:19:06.255Z,15.99
2022-12-05T20:21:35.356Z,15.97
2022-12-05T20:24:04.861Z,15.98
2022-12-05T20:26:38.602Z,16.00
2022-12-05T20:29:06.942Z,16.02
2022-12-05T20:31:39.852Z,16.04
2022-12-05T20:34:10.495Z,16.06
2022-12-05T20:36:37.887Z,16.07
2022-12-05T20:39:12.987Z,16.09
2022-12-05T20:41:40.318Z,16.11
2022-12-05T20:44:08.817Z,16.12
2022-12-05T20:46:36.881Z,16.13
2022-12-05T20:49:04.796Z,16.14
2022-12-05T20:51:34.367Z,16.16
2022-12-05T20:54:03.791Z,16.16
2022-12-05T20:56:32.679Z,16.19
2022-12-05T20:59:04.090Z,16.20
2022-12-05T21:01:34.998Z,16.20
2022-12-05T21:04:05.847Z,16.22
2022-12-05T21:06:36.205Z,16.21
2022-12-05T21:09:06.689Z,16.22
2022-12-05T21:11:34.030Z,16.23
2022-12-05T21:14:04.809Z,16.23
2022-12-05T21:16:32.446Z,16.22
2022-12-05T21:19:00.429Z,16.23
2022-12-05T21:21:29.189Z,16.25
2022-12-05T21:23:59.014Z,16.24
2022-12-05T21:26:29.334Z,16.26
2022-12-05T21:28:58.352Z,16.26
2022-12-05T21:31:32.114Z,16.27
2022-12-05T21:34:03.065Z,16.27
2022-12-05T21:36:32.433Z,16.27
2022-12-05T21:39:00.352Z,16.28
2022-12-05T21:41:28.231Z,16.29
2022-12-05T21:43:56.186Z,16.42
2022-12-05T21:46:25.475Z,16.52
2022-12-05T21:48:53.887Z,16.60
2022-12-05T21:51:22.561Z,16.66
2022-12-05T21:53:51.413Z,16.72
2022-12-05T21:56:22.787Z,16.76
2022-12-05T21:58:50.880Z,16.77
2022-12-05T22:01:26.980Z,16.82
2022-12-05T22:03:59.344Z,16.82
2022-12-05T22:06:27.428Z,16.85
2022-12-05T22:08:55.171Z,16.86
2022-12-05T22:11:24.036Z,16.87
2022-12-05T22:13:52.549Z,16.89
2022-12-05T22:16:20.583Z,16.92
2022-12-05T22:18:48.703Z,16.90
2022-12-05T22:21:20.750Z,16.90
2022-12-05T22:23:49.702Z,16.92
2022-12-05T22:26:20.063Z,16.91
2022-12-05T22:28:56.414Z,16.92
2022-12-05T22:31:24.584Z,16.93
2022-12-05T22:33:52.552Z,16.92
2022-12-05T22:36:20.038Z,16.93
2022-12-05T22:38:48.457Z,16.94
2022-12-05T22:41:21.815Z,16.95
2022-12-05T22:43:54.680Z,16.95
2022-12-05T22:46:23.520Z,16.96
2022-12-05T22:48:51.332Z,16.95
2022-12-05T22:51:19.835Z,16.96
2022-12-05T22:53:50.328Z,16.97
2022-12-05T22:56:19.248Z,16.99
2022-12-05T22:58:47.548Z,16.98
2022-12-05T23:01:20.116Z,16.98
2022-12-05T23:03:49.302Z,16.98
2022-12-05T23:06:17.836Z,16.99
2022-12-05T23:08:50.126Z,17.00
2022-12-05T23:11:19.226Z,17.00
2022-12-05T23:13:48.056Z,17.01
2022-12-05T23:16:22.104Z,17.00
2022-12-05T23:18:51.541Z,16.98
2022-12-05T23:21:23.288Z,17.00
2022-12-05T23:23:53.348Z,17.00
2022-12-05T23:26:23.662Z,17.00
2022-12-05T23:28:52.109Z,17.00
2022-12-05T23:31:20.153Z,16.99
2022-12-05T23:33:51.298Z,16.98
2022-12-05T23:36:20.453Z,16.99
2022-12-05T23:38:48.104Z,16.99
2022-12-05T23:41:19.701Z,17.00
2022-12-05T23:43:48.774Z,16.99
2022-12-05T23:46:19.339Z,16.99
2022-12-05T23:48:47.187Z,17.00
2022-12-05T23:51:28.791Z,16.97
2022-12-05T23:54:01.231Z,16.99
2022-12-05T23:56:31.338Z,16.97
2022-12-05T23:59:00.343Z,16.98
